Pagina principală
METAR-TAF:

METAR-TAF

Aeroporturi :

Tarija, Bolivia

Latitudine: 21-33S, longitudine: 064-42W, elevație: 1854 m

Observații meteo curente

Raportul a fost făcut în urmă cu 2 ore și 30 de minute, la 02:00 UTC
Vânt 3 kt de la Sud/Sud-vest
Temperatură 22°C
Umiditate 83%
Presiune 1019 hPa
Vizibilitate de 10 km sau mai mult
Nori împrăștiați la o înălțime de 2500 picior
Nori fragmentați la o înălțime de 7000 picior
Nori fragmentați la o înălțime de 20000 picior

METAR: SLTJ 250200Z 21003KT 9999 SCT025 BKN070 BKN200 22/19 Q1019

Ora: 00:30 (04:30 UTC)

Prognoză

Raportul a fost făcut în urmă cu 6 ore și 30 de minute, la 22:00 UTC
Prognoză valabilă de la 25 ora 00 UTC la 25 ora 24 UTC
Vânt kt de la Nord
Vizibilitate de 10 km sau mai mult
Nori împrăștiați la o înălțime de 3000 picior
Devenind
de la 25 ora 16 UTC la 25 ora 18 UTC
Vânt 10 kt de la Sud/Sud-est

TAF: SLTJ 242200Z 2500/2524 00000KT 9999 SCT030 TX31/2519Z TN18/2510Z BECMG 2516/2518 15010KT

Observații și prognoze meteo pentru peste 4.000 de aeroporturi (rapoarte METAR și TAF).

Stațiile disponibile sunt reprezentate pe hartă prin puncte galbene și roșii.

Țineți indicatorul mouse-ului pe punctul dorit pentru a vedea denumirea stației.

Apoi, faceți clic pentru a vedea observațiile și prognozele meteorologice.

Pentru a schimba harta: Pentru mărire, faceți clic pe butoanele verzi cu cruce neagră; pentru micșorare, pe butonul verde cu o liniuță; pentru hărți învecinate, pe săgețile verzi.


METAR-TAF: